Terminal Aerodrome Forecast
Issued by NWS

Home | Current Version | Previous Version | Text Only | Print | Product List | Glossary On
Versions: 1 2 3 4 5 6 7 8 9 10 11 12 13
000
FTUS45 KVEF 260520
TAFBIH
TAF
KBIH 260520Z 2606/2706 VRB06KT P6SM FEW120
     FM260700 34008KT P6SM SKC
     FM261600 VRB05KT P6SM SKC
     FM262000 16010G20KT P6SM SCT120
     FM270300 15011KT P6SM SCT120=

USA.gov is the U.S. government's official web portal to all federal, state and local government web resources and services.